Time;durP1;ratioP1;P1;durP2;ratioP2;P2;SDS_P1;SDS_P2;PMS_P1;PMS_P2;Temp;Humidity;BMP_temperature;BMP_pressure;BME280_temperature;BME280_humidity;BME280_pressure;Samples;Min_cycle;Max_cycle;Signal;HPM_P1;HPM_P2
2022/08/18 00:02:17;;;;;;;6.25;5.30;;;19.10;99.90;;;;;;5052309;28;20025;-51
2022/08/18 00:04:43;;;;;;;10.32;5.45;;;19.10;99.90;;;;;;5052455;28;20029;-51
2022/08/18 00:07:13;;;;;;;10.38;4.68;;;19.10;99.90;;;;;;5052294;28;20025;-53
2022/08/18 00:09:40;;;;;;;12.95;5.40;;;19.00;99.90;;;;;;5050813;28;20456;-51
2022/08/18 00:12:14;;;;;;;8.02;5.47;;;19.00;99.90;;;;;;5032642;28;20030;-52
2022/08/18 00:14:40;;;;;;;9.90;5.90;;;18.90;99.90;;;;;;5032453;28;20060;-51
2022/08/18 00:17:06;;;;;;;7.20;5.28;;;18.80;99.90;;;;;;5032305;28;20087;-51
2022/08/18 00:19:31;;;;;;;8.32;4.53;;;18.80;99.90;;;;;;5032462;28;20037;-50
2022/08/18 00:21:58;;;;;;;10.75;5.25;;;18.80;99.90;;;;;;5031995;28;20569;-53
2022/08/18 00:24:24;;;;;;;13.60;4.72;;;18.70;99.90;;;;;;5032025;28;20680;-51
2022/08/18 00:26:49;;;;;;;9.40;5.30;;;18.70;99.90;;;;;;5032281;28;20469;-52
2022/08/18 00:29:15;;;;;;;10.38;4.53;;;18.70;99.90;;;;;;5031981;28;20108;-53
2022/08/18 00:31:41;;;;;;;5.57;5.00;;;18.60;99.90;;;;;;5032157;28;20036;-52
2022/08/18 00:34:06;;;;;;;11.85;6.20;;;18.50;99.90;;;;;;5030610;28;20435;-54
2022/08/18 00:36:33;;;;;;;11.45;5.68;;;18.60;99.90;;;;;;5031921;28;20033;-52
2022/08/18 00:38:59;;;;;;;13.57;5.07;;;18.50;99.90;;;;;;5031989;28;20041;-53
2022/08/18 00:41:26;;;;;;;6.50;5.07;;;18.50;99.90;;;;;;5032204;28;20047;-51
2022/08/18 00:43:53;;;;;;;14.52;5.38;;;18.50;99.90;;;;;;5051372;28;20479;-50
2022/08/18 00:46:22;;;;;;;8.80;5.43;;;18.50;99.90;;;;;;5050269;28;20059;-51
2022/08/18 00:48:48;;;;;;;7.05;4.80;;;18.50;99.90;;;;;;5051572;28;20082;-51
2022/08/18 00:51:20;;;;;;;11.00;5.55;;;18.50;99.90;;;;;;5051062;28;20023;-52
2022/08/18 00:53:53;;;;;;;7.53;5.45;;;18.40;99.90;;;;;;5051708;28;20021;-52
2022/08/18 00:56:24;;;;;;;8.75;5.68;;;18.40;99.90;;;;;;5050454;28;20419;-51
2022/08/18 00:58:56;;;;;;;8.15;5.32;;;18.40;99.90;;;;;;5031788;28;20036;-51
2022/08/18 01:01:25;;;;;;;6.05;5.45;;;18.40;99.90;;;;;;5031070;28;20029;-52
2022/08/18 01:03:57;;;;;;;8.27;5.13;;;18.30;99.90;;;;;;5031673;28;20029;-51
2022/08/18 01:06:53;;;;;;;8.65;5.82;;;18.20;99.90;;;;;;5031531;28;20022;-52
2022/08/18 01:09:18;;;;;;;13.45;5.60;;;18.20;99.90;;;;;;5031117;28;20413;-53
2022/08/18 01:11:45;;;;;;;9.15;6.13;;;18.20;99.90;;;;;;5031518;28;20032;-51
2022/08/18 01:14:17;;;;;;;10.60;5.50;;;18.20;99.90;;;;;;5031175;28;20111;-54
2022/08/18 01:22:41;;;;;;;13.00;5.88;;;18.00;99.90;;;;;;5051226;28;20498;-53
2022/08/18 01:27:53;;;;;;;7.53;5.50;;;17.90;99.90;;;;;;5031366;28;20337;-55
2022/08/18 01:30:24;;;;;;;14.13;5.75;;;17.90;99.90;;;;;;5031064;28;20553;-53
2022/08/18 01:32:51;;;;;;;9.05;5.20;;;18.00;99.90;;;;;;5031221;28;20022;-53
2022/08/18 01:35:19;;;;;;;13.48;6.75;;;18.00;99.90;;;;;;5031152;28;20412;-54
2022/08/18 01:37:45;;;;;;;8.27;5.85;;;18.00;99.90;;;;;;5030630;28;20693;-51
2022/08/18 01:40:13;;;;;;;12.43;5.97;;;18.00;99.90;;;;;;5031152;28;20144;-53
2022/08/18 01:42:42;;;;;;;11.93;5.80;;;18.00;99.90;;;;;;5037221;28;20546;-55
2022/08/18 01:45:08;;;;;;;11.13;5.63;;;18.00;99.90;;;;;;5050946;28;20040;-51
2022/08/18 01:47:35;;;;;;;7.63;5.68;;;18.00;99.90;;;;;;5049712;28;20032;-52
2022/08/18 01:50:01;;;;;;;9.75;5.88;;;18.00;99.90;;;;;;5051084;28;20036;-52
2022/08/18 01:52:28;;;;;;;10.05;6.47;;;18.00;99.90;;;;;;5050834;28;20024;-51
2022/08/18 01:54:56;;;;;;;9.35;6.25;;;18.00;99.90;;;;;;5046781;28;20029;-52
2022/08/18 01:57:23;;;;;;;6.80;6.03;;;17.90;99.90;;;;;;5030443;28;20108;-52
2022/08/18 01:59:49;;;;;;;14.20;6.80;;;18.00;99.90;;;;;;5030900;28;20448;-51
2022/08/18 02:02:19;;;;;;;15.85;6.35;;;18.20;99.90;;;;;;5030821;28;20130;-53
2022/08/18 02:04:45;;;;;;;7.70;6.57;;;18.60;99.90;;;;;;5031330;28;20029;-55
2022/08/18 02:07:13;;;;;;;8.75;6.25;;;19.00;99.90;;;;;;5030784;28;20025;-51
2022/08/18 02:09:41;;;;;;;8.00;6.68;;;19.30;99.90;;;;;;5034825;28;20373;-53
2022/08/18 02:12:07;;;;;;;12.50;6.35;;;19.50;99.90;;;;;;5052522;28;20021;-52
2022/08/18 02:14:34;;;;;;;8.48;6.60;;;19.70;99.90;;;;;;5054372;28;20036;-52
2022/08/18 02:17:02;;;;;;;8.82;6.18;;;19.70;99.90;;;;;;5054760;28;20025;-51
2022/08/18 02:19:32;;;;;;;7.25;5.63;;;19.80;99.90;;;;;;5053342;28;20029;-52
2022/08/18 02:21:59;;;;;;;13.73;6.72;;;19.90;99.90;;;;;;5054411;28;20545;-53
2022/08/18 02:24:25;;;;;;;9.30;6.85;;;20.00;99.90;;;;;;5050394;28;20034;-52
2022/08/18 02:26:50;;;;;;;21.20;6.63;;;20.00;99.90;;;;;;5034185;28;20032;-52
2022/08/18 02:29:16;;;;;;;9.43;7.22;;;20.10;99.90;;;;;;5033803;28;20037;-51
2022/08/18 02:31:41;;;;;;;19.35;6.70;;;20.10;99.90;;;;;;5034414;28;20023;-53
2022/08/18 02:34:07;;;;;;;12.43;6.25;;;20.20;99.90;;;;;;5034166;28;20036;-51
2022/08/18 02:36:33;;;;;;;12.07;6.70;;;20.30;99.90;;;;;;5034227;28;20025;-52
2022/08/18 02:38:58;;;;;;;16.48;5.32;;;20.40;99.90;;;;;;5035584;28;20031;-51
2022/08/18 02:41:26;;;;;;;9.50;5.60;;;20.50;99.90;;;;;;5054165;28;20056;-51
2022/08/18 02:43:51;;;;;;;8.98;5.82;;;20.50;99.90;;;;;;5054002;28;20424;-54
2022/08/18 02:46:18;;;;;;;9.02;5.90;;;20.40;99.90;;;;;;5053945;28;20063;-51
2022/08/18 02:48:44;;;;;;;21.08;6.65;;;20.40;99.90;;;;;;5054025;28;20419;-51
2022/08/18 02:51:13;;;;;;;20.75;6.72;;;20.40;99.90;;;;;;5053991;28;20052;-52
2022/08/18 02:53:41;;;;;;;14.13;6.65;;;20.30;99.90;;;;;;5051839;28;20087;-52
2022/08/18 02:56:28;;;;;;;9.98;6.50;;;20.30;99.90;;;;;;5033717;28;20136;-53
2022/08/18 02:58:55;;;;;;;14.82;6.05;;;20.30;99.90;;;;;;5033984;28;20104;-53
2022/08/18 03:01:24;;;;;;;19.77;5.93;;;20.20;99.90;;;;;;5033679;28;20124;-51
2022/08/18 03:03:51;;;;;;;11.23;6.00;;;20.20;99.90;;;;;;5033596;28;20017;-51
2022/08/18 03:06:18;;;;;;;9.07;5.80;;;20.10;99.90;;;;;;5033212;28;20036;-52
2022/08/18 03:08:49;;;;;;;18.42;5.60;;;20.10;99.90;;;;;;5033598;28;20022;-51
2022/08/18 03:11:16;;;;;;;7.50;5.55;;;20.10;99.90;;;;;;5033518;28;20022;-52
2022/08/18 03:13:41;;;;;;;9.50;6.13;;;20.00;99.90;;;;;;5032317;28;20061;-51
2022/08/18 03:16:08;;;;;;;10.88;6.15;;;20.00;99.90;;;;;;5033020;28;20093;-52
2022/08/18 03:18:33;;;;;;;12.98;6.35;;;19.90;99.90;;;;;;5032965;28;20033;-52
2022/08/18 03:21:11;;;;;;;16.20;6.43;;;19.90;99.90;;;;;;5032892;28;20025;-52
2022/08/18 03:23:40;;;;;;;16.00;6.80;;;19.90;99.90;;;;;;5038302;28;20036;-52
2022/08/18 03:26:10;;;;;;;15.63;7.20;;;19.90;99.90;;;;;;5052976;28;20024;-52
2022/08/18 03:28:37;;;;;;;9.13;6.05;;;19.80;99.90;;;;;;5053053;28;20025;-52
2022/08/18 03:31:03;;;;;;;9.65;6.85;;;19.80;99.90;;;;;;5052912;28;20075;-51
2022/08/18 03:33:29;;;;;;;7.38;6.55;;;19.80;99.90;;;;;;5053362;28;20009;-51
2022/08/18 03:35:54;;;;;;;13.70;6.25;;;19.70;99.90;;;;;;5053149;28;20032;-51
2022/08/18 03:38:20;;;;;;;8.65;7.15;;;19.70;99.90;;;;;;5052477;28;21289;-52
2022/08/18 03:40:52;;;;;;;8.35;6.72;;;19.70;99.90;;;;;;5052838;28;20032;-52
2022/08/18 03:43:18;;;;;;;9.35;5.72;;;19.60;99.90;;;;;;5052856;28;20021;-54
2022/08/18 03:45:45;;;;;;;8.65;6.53;;;19.60;99.90;;;;;;5052974;28;20476;-52
2022/08/18 03:48:10;;;;;;;6.65;5.95;;;19.50;99.90;;;;;;5052610;28;20544;-50
2022/08/18 03:50:36;;;;;;;13.15;7.35;;;19.50;99.90;;;;;;5052814;28;20029;-52
2022/08/18 03:53:04;;;;;;;11.77;7.13;;;19.40;99.90;;;;;;5046941;28;20044;-53
2022/08/18 03:55:30;;;;;;;12.02;7.22;;;19.40;99.90;;;;;;5031407;28;20091;-54
2022/08/18 03:58:03;;;;;;;7.60;6.10;;;19.40;99.90;;;;;;5032869;28;20030;-52
2022/08/18 04:00:30;;;;;;;12.75;7.28;;;19.30;99.90;;;;;;5032718;28;20041;-51
2022/08/18 04:02:58;;;;;;;14.18;6.93;;;19.30;99.90;;;;;;5032627;28;20377;-52
2022/08/18 04:05:25;;;;;;;9.73;7.13;;;19.30;99.90;;;;;;5032375;28;20120;-52
2022/08/18 04:07:52;;;;;;;16.98;7.15;;;19.30;99.90;;;;;;5032463;28;20045;-51
2022/08/18 04:10:18;;;;;;;13.65;6.40;;;19.20;99.90;;;;;;5032470;28;20017;-51
2022/08/18 04:12:43;;;;;;;20.13;8.60;;;19.20;99.90;;;;;;5032498;28;20022;-52
2022/08/18 04:15:10;;;;;;;16.17;7.35;;;19.20;99.90;;;;;;5030855;28;20032;-52
2022/08/18 04:17:36;;;;;;;12.38;7.35;;;19.10;99.90;;;;;;5032395;28;20036;-52
2022/08/18 04:20:02;;;;;;;8.88;6.80;;;19.10;99.90;;;;;;5032050;28;20544;-50
2022/08/18 04:22:32;;;;;;;8.73;7.65;;;19.10;99.90;;;;;;5037296;28;20036;-50
2022/08/18 04:24:59;;;;;;;9.80;7.13;;;19.00;99.90;;;;;;5050856;28;20678;-51
2022/08/18 04:27:27;;;;;;;10.23;7.15;;;19.00;99.90;;;;;;5051745;28;20028;-51
2022/08/18 04:29:55;;;;;;;9.15;6.90;;;19.00;99.90;;;;;;5051996;28;20088;-51
2022/08/18 04:32:22;;;;;;;9.27;7.43;;;19.00;99.90;;;;;;5051863;28;20021;-54
2022/08/18 04:34:48;;;;;;;12.73;7.50;;;19.00;99.90;;;;;;5051542;28;20098;-52
2022/08/18 04:37:14;;;;;;;16.70;7.97;;;19.00;99.90;;;;;;5051007;28;20074;-52
2022/08/18 04:39:41;;;;;;;9.77;7.05;;;19.00;99.90;;;;;;5050247;28;20528;-51
2022/08/18 04:42:06;;;;;;;13.93;7.47;;;19.00;99.90;;;;;;5051689;28;20037;-52
2022/08/18 04:44:33;;;;;;;11.65;8.00;;;19.00;99.90;;;;;;5051849;28;20033;-53
2022/08/18 04:47:00;;;;;;;11.10;7.18;;;19.00;99.90;;;;;;5051846;28;20119;-53
2022/08/18 04:49:26;;;;;;;15.45;8.20;;;19.00;99.90;;;;;;5051642;28;20075;-51
2022/08/18 04:54:38;;;;;;;7.70;6.90;;;19.00;99.90;;;;;;5031813;28;20036;-52
2022/08/18 04:57:07;;;;;;;10.82;7.97;;;19.00;99.90;;;;;;5029858;28;20032;-55
2022/08/18 04:59:34;;;;;;;9.45;7.47;;;19.00;99.90;;;;;;5031695;28;20032;-53
2022/08/18 05:02:04;;;;;;;13.20;7.15;;;19.10;99.90;;;;;;5031670;28;20026;-51
2022/08/18 05:04:30;;;;;;;8.75;7.28;;;19.20;99.90;;;;;;5031356;28;20025;-51
2022/08/18 05:06:56;;;;;;;9.85;7.00;;;19.30;99.90;;;;;;5039103;28;20100;-52
2022/08/18 05:09:22;;;;;;;14.27;7.05;;;19.30;99.90;;;;;;5051259;28;20108;-55
2022/08/18 05:11:47;;;;;;;9.30;7.55;;;19.30;99.90;;;;;;5051325;28;20443;-51
2022/08/18 05:14:13;;;;;;;10.35;7.72;;;19.30;99.90;;;;;;5051481;28;20021;-52
2022/08/18 05:16:39;;;;;;;16.95;8.10;;;19.30;99.90;;;;;;5051106;28;20052;-51
2022/08/18 05:19:07;;;;;;;13.52;7.15;;;19.40;99.90;;;;;;5050976;28;20029;-54
2022/08/18 05:21:35;;;;;;;19.10;6.90;;;19.40;99.90;;;;;;5044661;28;20091;-53
2022/08/18 05:24:02;;;;;;;13.63;7.32;;;19.50;99.90;;;;;;5030690;28;20365;-51
2022/08/18 05:26:27;;;;;;;12.45;7.75;;;19.40;99.90;;;;;;5030989;28;20108;-51
2022/08/18 05:28:53;;;;;;;9.93;7.43;;;19.50;99.90;;;;;;5030913;28;20411;-50
2022/08/18 05:31:22;;;;;;;8.50;6.90;;;19.50;99.90;;;;;;5031125;28;20654;-51
2022/08/18 05:33:48;;;;;;;16.60;7.72;;;19.60;99.90;;;;;;5031316;28;20590;-52
2022/08/18 05:36:23;;;;;;;13.30;8.00;;;19.60;99.90;;;;;;5036942;28;20021;-52
2022/08/18 05:39:03;;;;;;;8.65;7.43;;;19.70;99.90;;;;;;5051237;28;20056;-54
2022/08/18 05:41:40;;;;;;;12.80;8.48;;;19.70;99.90;;;;;;5051155;28;20108;-52
2022/08/18 05:44:11;;;;;;;10.30;7.78;;;19.80;99.90;;;;;;5050328;28;20029;-51
2022/08/18 05:46:36;;;;;;;13.30;8.38;;;19.90;99.90;;;;;;5052047;28;20107;-54
2022/08/18 05:49:03;;;;;;;13.52;7.88;;;19.90;99.90;;;;;;5054960;28;20108;-53
2022/08/18 05:51:35;;;;;;;12.55;6.93;;;19.90;99.90;;;;;;5043892;28;20087;-52
2022/08/18 05:56:53;;;;;;;11.15;8.20;;;20.10;99.90;;;;;;5035076;28;20048;-52
2022/08/18 05:59:21;;;;;;;12.95;9.13;;;20.20;99.90;;;;;;5034837;28;20025;-51
2022/08/18 06:01:53;;;;;;;11.73;7.07;;;20.30;99.90;;;;;;5034981;28;20021;-53
2022/08/18 06:04:37;;;;;;;9.20;7.30;;;20.30;99.90;;;;;;5034775;28;20018;-51
2022/08/18 06:07:07;;;;;;;8.85;7.65;;;20.30;99.90;;;;;;5033451;28;20546;-54
2022/08/18 06:09:53;;;;;;;14.32;7.57;;;20.50;99.90;;;;;;5034636;28;20372;-52
2022/08/18 06:12:25;;;;;;;9.68;7.45;;;20.60;99.90;;;;;;5034453;28;20207;-52
2022/08/18 06:15:01;;;;;;;12.38;6.82;;;20.70;99.90;;;;;;5034608;28;20025;-53
2022/08/18 06:17:46;;;;;;;14.70;7.72;;;20.90;99.90;;;;;;5034428;28;20488;-53
2022/08/18 06:20:20;;;;;;;8.30;7.45;;;20.90;99.90;;;;;;5037200;28;20032;-53
2022/08/18 06:22:48;;;;;;;11.88;7.80;;;20.90;99.90;;;;;;5054456;28;20036;-53
2022/08/18 06:25:21;;;;;;;9.90;7.47;;;20.80;99.90;;;;;;5053872;28;20100;-52
2022/08/18 06:28:08;;;;;;;10.43;7.13;;;20.80;99.90;;;;;;5054251;28;20025;-50
2022/08/18 06:31:01;;;;;;;15.50;7.05;;;21.20;99.90;;;;;;5054030;28;20021;-52
2022/08/18 06:33:39;;;;;;;9.38;7.20;;;21.20;99.90;;;;;;5054325;28;20029;-52
2022/08/18 06:36:16;;;;;;;9.20;6.70;;;21.30;99.90;;;;;;5053820;28;20029;-50
2022/08/18 06:39:19;;;;;;;8.57;6.45;;;21.30;99.90;;;;;;5054306;28;20579;-52
2022/08/18 06:41:48;;;;;;;17.58;8.00;;;21.40;99.90;;;;;;5054325;28;20031;-55
2022/08/18 06:44:22;;;;;;;11.20;6.75;;;21.50;99.90;;;;;;5053795;28;20076;-52
2022/08/18 06:46:52;;;;;;;9.15;6.70;;;21.70;99.90;;;;;;5054131;28;20048;-52
2022/08/18 06:49:44;;;;;;;15.23;7.50;;;21.70;99.90;;;;;;5053375;28;20502;-52
2022/08/18 06:52:23;;;;;;;12.93;6.60;;;21.80;99.90;;;;;;5034158;28;20369;-52
2022/08/18 06:54:50;;;;;;;8.48;6.60;;;21.90;99.90;;;;;;5034045;28;20010;-51
2022/08/18 06:57:26;;;;;;;7.15;6.45;;;21.90;99.90;;;;;;5033498;28;20034;-52
2022/08/18 07:00:03;;;;;;;11.07;7.38;;;22.20;99.90;;;;;;5033172;28;20017;-53
2022/08/18 07:02:53;;;;;;;10.10;6.70;;;22.00;99.90;;;;;;5033543;28;20386;-51
2022/08/18 07:05:22;;;;;;;8.52;6.35;;;22.30;99.90;;;;;;5033273;28;20518;-52
2022/08/18 07:08:10;;;;;;;12.75;6.47;;;22.20;99.90;;;;;;5033223;28;20036;-51
2022/08/18 07:10:44;;;;;;;9.02;7.47;;;22.40;99.90;;;;;;5032784;28;20080;-53
2022/08/18 07:13:28;;;;;;;10.88;7.53;;;22.50;99.90;;;;;;5033428;28;20009;-51
2022/08/18 07:16:13;;;;;;;9.77;7.20;;;22.30;99.90;;;;;;5051515;28;20059;-52
2022/08/18 07:18:39;;;;;;;9.52;6.35;;;22.30;99.90;;;;;;5052818;28;20029;-52
2022/08/18 07:21:05;;;;;;;8.55;6.55;;;22.20;99.90;;;;;;5051964;28;20029;-50
2022/08/18 07:23:39;;;;;;;12.18;6.90;;;22.30;99.90;;;;;;5052893;28;20029;-51
2022/08/18 07:26:16;;;;;;;10.18;7.10;;;22.30;99.90;;;;;;5052483;28;20029;-52
2022/08/18 07:28:48;;;;;;;11.30;6.70;;;22.30;99.90;;;;;;5053403;28;20554;-51
2022/08/18 07:31:37;;;;;;;13.27;7.20;;;22.30;99.90;;;;;;5052775;28;20376;-51
2022/08/18 07:34:17;;;;;;;14.10;7.50;;;22.30;99.90;;;;;;5051534;28;20021;-50
2022/08/18 07:36:49;;;;;;;9.48;6.93;;;22.10;99.90;;;;;;5052952;28;20091;-52
2022/08/18 07:39:20;;;;;;;9.65;6.40;;;22.10;99.90;;;;;;5052667;28;20403;-51
2022/08/18 07:41:57;;;;;;;11.32;6.32;;;22.30;99.90;;;;;;5036938;28;20040;-51
2022/08/18 07:44:38;;;;;;;7.82;6.55;;;22.20;99.90;;;;;;5031266;28;20060;-52
2022/08/18 07:47:12;;;;;;;7.82;6.63;;;22.00;99.90;;;;;;5031235;28;20477;-51
2022/08/18 07:49:40;;;;;;;15.32;6.85;;;22.00;99.90;;;;;;5031531;28;20079;-52
2022/08/18 07:52:14;;;;;;;9.20;6.90;;;22.10;99.90;;;;;;5031266;28;20026;-51
2022/08/18 07:54:52;;;;;;;10.50;7.70;;;22.10;99.90;;;;;;5029790;28;20396;-50
2022/08/18 07:57:18;;;;;;;11.90;6.55;;;22.10;99.90;;;;;;5031206;28;20404;-50
2022/08/18 08:00:04;;;;;;;8.35;7.13;;;22.30;99.90;;;;;;5031588;28;20026;-52
2022/08/18 08:02:57;;;;;;;11.35;6.90;;;22.30;99.90;;;;;;5031446;28;20210;-51
2022/08/18 08:05:29;;;;;;;7.40;6.57;;;22.50;99.90;;;;;;5031310;28;20036;-51
2022/08/18 08:08:06;;;;;;;16.73;7.63;;;23.00;99.90;;;;;;5031250;28;20520;-54
2022/08/18 08:10:59;;;;;;;9.68;6.57;;;23.30;99.90;;;;;;5031094;28;20236;-51
2022/08/18 08:13:36;;;;;;;9.55;6.15;;;23.50;99.90;;;;;;5029772;28;20029;-51
2022/08/18 08:16:13;;;;;;;10.82;6.95;;;23.40;99.90;;;;;;5030850;28;20021;-51
2022/08/18 08:18:58;;;;;;;7.55;6.78;;;23.80;99.90;;;;;;5030537;28;20075;-50
2022/08/18 08:21:27;;;;;;;10.80;5.97;;;23.70;99.90;;;;;;5031115;28;20040;-51
2022/08/18 08:24:07;;;;;;;12.88;6.43;;;23.50;99.90;;;;;;5030472;28;20033;-52
2022/08/18 08:26:41;;;;;;;7.68;6.22;;;23.50;99.90;;;;;;5050213;28;20029;-51
2022/08/18 08:29:09;;;;;;;7.13;5.88;;;23.30;99.90;;;;;;5051050;28;20047;-52
2022/08/18 08:32:14;;;;;;;7.45;6.28;;;23.30;99.90;;;;;;5050596;28;20017;-51
2022/08/18 08:35:01;;;;;;;10.77;6.38;;;23.50;99.90;;;;;;5049235;28;20021;-50
2022/08/18 08:37:46;;;;;;;7.05;6.05;;;23.50;99.90;;;;;;5050853;28;20056;-51
2022/08/18 08:40:36;;;;;;;15.05;6.40;;;23.70;99.90;;;;;;5049880;28;20029;-52
2022/08/18 08:43:09;;;;;;;9.63;6.63;;;23.90;99.90;;;;;;5049259;28;20041;-53
2022/08/18 08:46:14;;;;;;;8.07;5.35;;;24.40;99.90;;;;;;5049171;28;20025;-51
2022/08/18 08:48:48;;;;;;;10.90;5.97;;;24.80;99.90;;;;;;5049804;28;20036;-50
2022/08/18 08:51:41;;;;;;;11.60;5.50;;;24.80;98.60;;;;;;5050461;28;20025;-52
2022/08/18 08:54:20;;;;;;;7.22;5.40;;;24.40;99.30;;;;;;5045694;28;20456;-51
2022/08/18 08:56:49;;;;;;;9.05;5.30;;;24.60;99.40;;;;;;5029958;28;20128;-53
2022/08/18 08:59:20;;;;;;;9.23;5.05;;;24.80;98.80;;;;;;5030171;28;20040;-52
2022/08/18 09:01:46;;;;;;;10.40;5.75;;;24.90;98.40;;;;;;5030335;28;20455;-51
2022/08/18 09:04:44;;;;;;;6.53;5.20;;;24.90;97.80;;;;;;5031108;28;20029;-54
2022/08/18 09:07:34;;;;;;;25.92;7.43;;;25.20;98.80;;;;;;5031141;28;20037;-52
2022/08/18 09:10:30;;;;;;;31.60;6.03;;;25.50;97.70;;;;;;5045208;28;20033;-53
2022/08/18 09:13:26;;;;;;;17.80;6.45;;;25.70;97.70;;;;;;5051353;28;20025;-51
2022/08/18 09:15:55;;;;;;;26.17;6.63;;;25.80;97.20;;;;;;5051045;28;20025;-52
2022/08/18 09:18:35;;;;;;;12.23;5.45;;;25.90;97.60;;;;;;5050825;28;20372;-51
2022/08/18 09:21:19;;;;;;;17.77;7.20;;;26.00;96.90;;;;;;5049160;28;20154;-52
2022/08/18 09:23:49;;;;;;;19.33;6.18;;;25.70;96.90;;;;;;5044266;28;20033;-53
2022/08/18 09:26:34;;;;;;;15.02;6.72;;;25.70;97.20;;;;;;5031385;28;20083;-52
2022/08/18 09:29:22;;;;;;;9.80;6.93;;;25.70;97.60;;;;;;5031263;28;20034;-50
2022/08/18 09:32:08;;;;;;;13.23;6.22;;;25.50;97.40;;;;;;5031024;28;20069;-55
2022/08/18 09:34:52;;;;;;;20.58;6.40;;;25.90;97.80;;;;;;5029230;28;20056;-53
2022/08/18 09:37:22;;;;;;;14.55;6.25;;;26.20;97.90;;;;;;5030707;28;20021;-51
2022/08/18 09:43:06;;;;;;;10.88;6.35;;;26.40;96.60;;;;;;5030776;28;20436;-54
2022/08/18 09:49:25;;;;;;;8.95;5.53;;;26.80;95.80;;;;;;5049291;28;20089;-53
2022/08/18 09:55:16;;;;;;;7.57;5.05;;;27.40;94.30;;;;;;5039812;28;20036;-54
2022/08/18 09:57:44;;;;;;;9.77;4.57;;;27.40;94.50;;;;;;5039617;28;20033;-54
2022/08/18 10:00:13;;;;;;;16.65;4.85;;;27.70;93.50;;;;;;5058729;28;20036;-53
2022/08/18 10:02:41;;;;;;;9.82;4.22;;;28.20;92.50;;;;;;5059292;28;20023;-53
2022/08/18 10:05:17;;;;;;;5.40;4.20;;;28.40;91.80;;;;;;5059783;28;20032;-53
2022/08/18 10:08:04;;;;;;;17.38;4.57;;;28.60;90.90;;;;;;5040327;28;20070;-52
2022/08/18 10:11:11;;;;;;;10.10;5.10;;;28.60;91.80;;;;;;5058251;28;20099;-52
2022/08/18 10:14:31;;;;;;;25.70;5.68;;;29.00;91.40;;;;;;5058278;28;20106;-54
2022/08/18 10:17:14;;;;;;;25.20;5.25;;;29.00;90.30;;;;;;5059686;28;20041;-52
2022/08/18 10:19:54;;;;;;;10.40;4.70;;;29.10;90.50;;;;;;5059565;28;20376;-54
2022/08/18 10:22:46;;;;;;;6.47;4.82;;;29.00;90.70;;;;;;5058877;28;20101;-55
2022/08/18 10:25:28;;;;;;;5.45;4.53;;;29.60;89.70;;;;;;5050715;28;20036;-53
2022/08/18 10:27:57;;;;;;;9.03;5.00;;;29.60;89.90;;;;;;5058018;28;20040;-52
2022/08/18 10:30:32;;;;;;;8.88;5.03;;;29.50;90.20;;;;;;5059497;28;20028;-53
2022/08/18 10:33:04;;;;;;;7.20;4.80;;;29.90;89.40;;;;;;5059661;28;20020;-55
2022/08/18 10:35:35;;;;;;;7.82;4.68;;;30.30;86.70;;;;;;5063613;28;20086;-54
2022/08/18 10:38:35;;;;;;;15.25;6.82;;;30.10;87.60;;;;;;5069561;28;20021;-55
2022/08/18 10:41:09;;;;;;;7.38;4.97;;;30.10;87.20;;;;;;5072160;28;20111;-55
2022/08/18 10:43:49;;;;;;;9.00;5.40;;;30.70;87.30;;;;;;5052004;28;20040;-53
2022/08/18 10:46:22;;;;;;;8.85;4.95;;;30.80;84.80;;;;;;5052761;28;20025;-51
2022/08/18 10:49:24;;;;;;;8.25;4.90;;;30.80;84.70;;;;;;5052796;28;20488;-55
2022/08/18 10:52:14;;;;;;;4.97;4.47;;;30.90;86.10;;;;;;5051259;28;20044;-52
2022/08/18 10:54:51;;;;;;;7.25;4.90;;;30.40;88.00;;;;;;5047983;28;20380;-51
2022/08/18 10:57:36;;;;;;;11.02;4.25;;;30.90;84.40;;;;;;5033635;28;20357;-54
2022/08/18 11:00:16;;;;;;;15.45;5.15;;;30.90;84.40;;;;;;5033623;28;20111;-53
2022/08/18 11:03:00;;;;;;;11.55;5.15;;;30.90;82.70;;;;;;5033886;28;20036;-53
2022/08/18 11:05:26;;;;;;;5.95;4.30;;;30.70;83.10;;;;;;5033725;28;20135;-53
2022/08/18 11:08:03;;;;;;;7.57;4.85;;;30.30;83.40;;;;;;5033556;28;20034;-54
2022/08/18 11:10:35;;;;;;;9.73;4.95;;;30.60;83.60;;;;;;5033569;28;20356;-55
2022/08/18 11:13:04;;;;;;;8.95;4.45;;;30.40;83.30;;;;;;5032355;28;20025;-55
2022/08/18 11:15:51;;;;;;;10.05;5.03;;;30.70;82.40;;;;;;5032434;28;20021;-52
2022/08/18 11:18:27;;;;;;;5.38;4.88;;;31.40;84.10;;;;;;5034911;28;20112;-53
2022/08/18 11:20:53;;;;;;;8.45;4.90;;;30.50;82.20;;;;;;5052734;28;20030;-55
2022/08/18 11:23:19;;;;;;;7.65;4.70;;;31.10;83.70;;;;;;5052760;28;20021;-57
2022/08/18 11:25:45;;;;;;;8.80;5.13;;;31.20;81.00;;;;;;5052695;28;20098;-56
2022/08/18 11:28:17;;;;;;;7.65;4.53;;;31.00;82.00;;;;;;5052983;28;20121;-57
2022/08/18 11:30:46;;;;;;;6.00;4.25;;;31.90;80.50;;;;;;5051161;28;20372;-56
2022/08/18 11:33:18;;;;;;;10.00;4.82;;;31.80;79.40;;;;;;5052758;28;20025;-55
2022/08/18 11:35:50;;;;;;;5.80;5.13;;;30.70;78.40;;;;;;5052349;28;20024;-53
2022/08/18 11:38:18;;;;;;;6.15;5.18;;;30.70;80.20;;;;;;5051923;28;20055;-53
2022/08/18 11:40:51;;;;;;;8.20;5.07;;;30.90;80.90;;;;;;5050747;28;20033;-53
2022/08/18 11:43:27;;;;;;;10.05;5.40;;;30.70;80.00;;;;;;5051354;28;20503;-54
2022/08/18 11:46:00;;;;;;;9.45;4.97;;;30.20;79.70;;;;;;5052071;28;20033;-55
2022/08/18 11:48:44;;;;;;;12.10;4.72;;;30.00;81.50;;;;;;5052314;28;20033;-55
2022/08/18 11:51:28;;;;;;;;;;;30.00;83.40;;;;;;5053150;28;20025;-56
2022/08/18 11:54:11;;;;;;;8.15;4.20;;;30.00;81.90;;;;;;5047117;28;19909;-55
2022/08/18 11:56:37;;;;;;;9.23;5.10;;;30.10;82.40;;;;;;5032474;28;20068;-55
2022/08/18 11:59:04;;;;;;;10.80;4.85;;;30.10;83.00;;;;;;5038013;28;20033;-54
2022/08/18 12:01:32;;;;;;;10.85;5.07;;;30.00;82.40;;;;;;5032795;28;20022;-56
2022/08/18 12:04:12;;;;;;;15.63;5.70;;;29.90;83.70;;;;;;5032704;28;20056;-56
2022/08/18 12:06:48;;;;;;;9.30;5.47;;;30.00;82.00;;;;;;5032745;28;20025;-53
2022/08/18 12:09:18;;;;;;;9.25;5.45;;;30.30;81.00;;;;;;5032714;28;20079;-54
2022/08/18 12:11:53;;;;;;;9.20;4.78;;;31.20;79.20;;;;;;5032662;28;20045;-57
2022/08/18 12:14:50;;;;;;;5.10;4.20;;;32.50;79.30;;;;;;5043275;28;20490;-58
2022/08/18 12:17:16;;;;;;;8.18;4.32;;;33.20;75.50;;;;;;5052172;28;20048;-57
2022/08/18 12:19:42;;;;;;;10.90;4.57;;;33.80;76.00;;;;;;5052243;28;20032;-57
2022/08/18 12:22:21;;;;;;;6.28;3.90;;;34.10;73.30;;;;;;5051946;28;20025;-57
2022/08/18 12:24:47;;;;;;;9.55;4.28;;;34.60;70.00;;;;;;5051260;28;20057;-57
2022/08/18 12:27:15;;;;;;;12.45;4.45;;;35.20;70.90;;;;;;5051987;28;20058;-56
2022/08/18 12:29:41;;;;;;;5.03;4.28;;;35.20;70.20;;;;;;5052176;28;20083;-57
2022/08/18 12:32:08;;;;;;;9.77;4.07;;;35.20;67.80;;;;;;5050718;28;20029;-57
2022/08/18 12:34:33;;;;;;;14.23;5.15;;;35.00;66.20;;;;;;5048450;28;20033;-57
2022/08/18 12:37:00;;;;;;;19.02;4.53;;;35.00;67.80;;;;;;5036083;28;20352;-56
2022/08/18 12:39:27;;;;;;;8.15;4.55;;;34.90;66.70;;;;;;5051919;28;20025;-55
2022/08/18 12:41:53;;;;;;;7.78;4.50;;;35.00;67.00;;;;;;5050720;28;20037;-56
2022/08/18 12:44:18;;;;;;;8.57;4.10;;;35.10;67.10;;;;;;5051668;28;20461;-55
2022/08/18 12:46:44;;;;;;;9.52;4.30;;;35.20;66.80;;;;;;5050652;28;20031;-57
2022/08/18 12:49:15;;;;;;;10.45;3.97;;;35.20;65.30;;;;;;5051638;28;20024;-56
2022/08/18 12:51:42;;;;;;;11.38;3.92;;;35.30;65.00;;;;;;5051781;28;20044;-55
2022/08/18 12:54:08;;;;;;;5.90;3.72;;;35.60;64.90;;;;;;5051335;28;20104;-54
2022/08/18 12:56:33;;;;;;;8.38;4.07;;;35.90;62.90;;;;;;5041117;28;20128;-57
2022/08/18 13:02:21;;;;;;;13.02;4.93;;;35.00;63.50;;;;;;5047540;28;20145;-57
2022/08/18 13:04:47;;;;;;;5.88;4.50;;;34.00;63.30;;;;;;5051598;28;20049;-56
2022/08/18 13:07:14;;;;;;;11.77;4.57;;;33.70;64.70;;;;;;5051477;28;20025;-57
2022/08/18 13:09:40;;;;;;;6.80;4.72;;;33.00;65.50;;;;;;5051510;28;20029;-55
2022/08/18 13:12:06;;;;;;;6.32;3.90;;;32.60;67.50;;;;;;5034128;28;20030;-55
2022/08/18 13:14:33;;;;;;;6.93;4.20;;;32.50;69.60;;;;;;5031415;28;20033;-55
2022/08/18 13:16:59;;;;;;;10.00;4.63;;;31.90;70.30;;;;;;5031412;28;20087;-57
2022/08/18 13:19:24;;;;;;;10.32;5.00;;;31.40;68.30;;;;;;5031478;28;20043;-55
2022/08/18 13:21:50;;;;;;;10.75;4.80;;;31.30;70.60;;;;;;5031533;28;20749;-56
2022/08/18 13:24:16;;;;;;;7.97;4.68;;;31.30;69.10;;;;;;5031189;28;20033;-56
2022/08/18 13:26:44;;;;;;;8.65;4.90;;;30.90;71.10;;;;;;5046769;28;20075;-55
2022/08/18 13:29:10;;;;;;;9.88;5.38;;;30.70;71.60;;;;;;5033937;28;20091;-55
2022/08/18 13:31:37;;;;;;;8.00;5.00;;;30.50;73.10;;;;;;5031423;28;20026;-55
2022/08/18 13:34:06;;;;;;;9.98;4.68;;;30.30;74.30;;;;;;5031075;28;20064;-55
2022/08/18 13:36:43;;;;;;;9.02;5.05;;;30.00;74.30;;;;;;5031327;28;20080;-55
2022/08/18 13:39:18;;;;;;;7.78;5.55;;;29.80;75.40;;;;;;5030987;28;20087;-55